Time;durP1;ratioP1;P1;durP2;ratioP2;P2;SDS_P1;SDS_P2;PMS_P1;PMS_P2;Temp;Humidity;BMP_temperature;BMP_pressure;BME280_temperature;BME280_humidity;BME280_pressure;Samples;Min_cycle;Max_cycle;Signal;HPM_P1;HPM_P2
2022/11/11 00:01:30;;;;;;;6.67;4.10;;;11.70;99.90;;;;;;5074391;28;20413;-74
2022/11/11 00:04:17;;;;;;;6.73;3.80;;;11.70;99.90;;;;;;5074690;28;20771;-73
2022/11/11 00:07:04;;;;;;;7.33;4.67;;;11.70;99.90;;;;;;5075105;28;20440;-73
2022/11/11 00:09:51;;;;;;;7.13;3.80;;;11.70;99.90;;;;;;5075167;28;20940;-73
2022/11/11 00:12:38;;;;;;;9.67;4.90;;;11.60;99.90;;;;;;5077516;28;20558;-73
2022/11/11 00:15:25;;;;;;;6.40;4.50;;;11.60;99.90;;;;;;5081253;28;20459;-73
2022/11/11 00:27:29;;;;;;;8.60;4.20;;;11.50;99.90;;;;;;5082742;28;20440;-73
2022/11/11 00:30:16;;;;;;;9.83;4.57;;;11.40;99.90;;;;;;5079469;28;20482;-74
2022/11/11 00:33:03;;;;;;;8.43;4.60;;;11.40;99.90;;;;;;5077865;28;20472;-73
2022/11/11 00:35:52;;;;;;;7.80;4.20;;;11.40;99.90;;;;;;5077261;28;21019;-73
2022/11/11 00:38:48;;;;;;;6.87;4.47;;;11.40;99.90;;;;;;5077941;28;20467;-73
2022/11/11 00:41:35;;;;;;;10.57;4.57;;;11.40;99.90;;;;;;5077818;28;20417;-74
2022/11/11 00:44:23;;;;;;;9.00;4.70;;;11.30;99.90;;;;;;5077385;28;20477;-74
2022/11/11 00:53:24;;;;;;;8.43;4.40;;;11.30;99.90;;;;;;5074985;28;20482;-73
2022/11/11 00:56:13;;;;;;;9.00;4.70;;;11.20;99.90;;;;;;5074144;28;20417;-73
2022/11/11 00:59:00;;;;;;;10.53;4.90;;;11.20;99.90;;;;;;5074157;28;20968;-73
2022/11/11 01:01:46;;;;;;;10.80;5.03;;;11.10;99.90;;;;;;5073662;28;21000;-73
2022/11/11 01:04:33;;;;;;;8.73;4.97;;;11.10;99.90;;;;;;5074025;28;20764;-73
2022/11/11 01:07:20;;;;;;;10.00;5.47;;;11.10;99.90;;;;;;5075038;28;20783;-73
2022/11/11 01:10:09;;;;;;;8.40;4.70;;;11.10;99.90;;;;;;5077030;28;20424;-73
2022/11/11 01:13:10;;;;;;;8.43;5.00;;;11.10;99.90;;;;;;5076818;28;20498;-73
2022/11/11 01:16:01;;;;;;;9.10;5.90;;;11.00;99.90;;;;;;5076756;28;20460;-73
2022/11/11 01:18:48;;;;;;;9.20;5.67;;;11.00;99.90;;;;;;5076794;28;20429;-73
2022/11/11 01:21:35;;;;;;;7.90;5.07;;;11.00;99.90;;;;;;5077299;28;20460;-73
2022/11/11 01:24:21;;;;;;;10.00;5.80;;;10.90;99.90;;;;;;5077296;28;20424;-73
2022/11/11 01:27:09;;;;;;;8.53;5.37;;;11.00;99.90;;;;;;5077409;28;20448;-73
2022/11/11 01:29:56;;;;;;;8.63;6.17;;;10.90;99.90;;;;;;5077089;28;20441;-73
2022/11/11 01:32:43;;;;;;;8.10;5.37;;;10.90;99.90;;;;;;5076731;28;20575;-73
2022/11/11 01:35:30;;;;;;;10.43;6.73;;;10.90;99.90;;;;;;5076958;28;20476;-73
2022/11/11 01:38:16;;;;;;;6.83;6.00;;;10.90;99.90;;;;;;5077572;28;20506;-73
2022/11/11 01:41:31;;;;;;;10.17;6.67;;;10.90;99.90;;;;;;5077331;28;20796;-73
2022/11/11 01:44:39;;;;;;;12.17;7.30;;;10.90;99.90;;;;;;5076618;28;20428;-73
2022/11/11 01:49:17;;;;;;;10.07;6.67;;;10.90;99.90;;;;;;5075889;28;20424;-73
2022/11/11 01:50:52;;;;;;;10.10;7.13;;;10.90;99.90;;;;;;5076350;28;20452;-73
2022/11/11 01:53:39;;;;;;;14.13;7.40;;;10.90;99.90;;;;;;5076313;28;20476;-73
2022/11/11 01:56:26;;;;;;;12.10;7.93;;;10.90;99.90;;;;;;5076403;28;20459;-73
2022/11/11 01:59:15;;;;;;;9.97;6.60;;;10.90;99.90;;;;;;5076375;28;20432;-73
2022/11/11 02:02:12;;;;;;;9.63;7.30;;;10.90;99.90;;;;;;5076175;28;20468;-73
2022/11/11 02:08:09;;;;;;;8.80;6.87;;;10.90;99.90;;;;;;5076743;28;20421;-73
2022/11/11 02:10:56;;;;;;;8.47;7.57;;;10.90;99.90;;;;;;5076056;28;20488;-73
2022/11/11 02:16:48;;;;;;;10.77;7.50;;;10.90;99.90;;;;;;5075717;28;20433;-73
2022/11/11 02:19:44;;;;;;;9.33;8.00;;;10.90;99.90;;;;;;5075385;28;20459;-73
2022/11/11 02:22:37;;;;;;;9.80;8.47;;;10.90;99.90;;;;;;5075502;28;20579;-73
2022/11/11 02:25:30;;;;;;;12.20;8.17;;;10.90;99.90;;;;;;5076647;28;20421;-73
2022/11/11 02:28:20;;;;;;;11.83;9.00;;;10.90;99.90;;;;;;5075699;28;20506;-74
2022/11/11 02:31:08;;;;;;;11.00;7.60;;;10.80;99.90;;;;;;5076052;28;20429;-73
2022/11/11 02:33:55;;;;;;;9.40;7.53;;;10.80;99.90;;;;;;5075759;28;20417;-73
2022/11/11 02:36:44;;;;;;;9.40;7.50;;;10.90;99.90;;;;;;5075448;28;20456;-73
2022/11/11 02:39:31;;;;;;;14.40;8.57;;;10.80;99.90;;;;;;5075648;28;20499;-73
2022/11/11 02:42:39;;;;;;;9.90;7.77;;;10.80;99.90;;;;;;5075449;28;20511;-73
2022/11/11 02:45:26;;;;;;;11.90;9.10;;;10.80;99.90;;;;;;5075636;28;20925;-73
2022/11/11 02:48:13;;;;;;;10.37;8.17;;;10.80;99.90;;;;;;5075361;28;20567;-73
2022/11/11 02:51:00;;;;;;;10.10;7.90;;;10.80;99.90;;;;;;5075239;28;20445;-73
2022/11/11 02:53:47;;;;;;;13.43;8.73;;;10.70;99.90;;;;;;5075200;28;20471;-73
2022/11/11 02:59:40;;;;;;;11.10;8.03;;;10.70;99.90;;;;;;5075168;28;20412;-73
2022/11/11 03:02:27;;;;;;;11.10;7.63;;;10.70;99.90;;;;;;5075636;28;20468;-73
2022/11/11 03:05:14;;;;;;;10.50;7.37;;;10.70;99.90;;;;;;5075179;28;20460;-73
2022/11/11 03:08:01;;;;;;;8.83;7.57;;;10.60;99.90;;;;;;5075090;28;20494;-73
2022/11/11 03:10:48;;;;;;;8.67;7.13;;;10.60;99.90;;;;;;5075410;28;20564;-73
2022/11/11 03:13:35;;;;;;;12.60;8.80;;;10.60;99.90;;;;;;5074972;28;20463;-73
2022/11/11 03:19:27;;;;;;;9.67;7.50;;;10.60;99.90;;;;;;5074828;28;20440;-73
2022/11/11 03:22:14;;;;;;;10.47;8.10;;;10.50;99.90;;;;;;5075181;28;20483;-73
2022/11/11 03:25:38;;;;;;;9.83;7.80;;;10.50;99.90;;;;;;5074954;28;20471;-73
2022/11/11 03:28:25;;;;;;;10.93;8.37;;;10.50;99.90;;;;;;5074466;28;20466;-73
2022/11/11 03:31:12;;;;;;;9.40;7.73;;;10.50;99.90;;;;;;5075561;28;20499;-73
2022/11/11 03:34:17;;;;;;;12.00;8.40;;;10.50;99.90;;;;;;5077558;28;20478;-73
2022/11/11 03:40:10;;;;;;;13.63;8.07;;;10.40;99.90;;;;;;5074453;28;20478;-73
2022/11/11 03:42:56;;;;;;;9.50;8.00;;;10.40;99.90;;;;;;5074950;28;20810;-73
2022/11/11 03:45:50;;;;;;;12.30;9.03;;;10.40;99.90;;;;;;5074302;28;20499;-73
2022/11/11 03:48:36;;;;;;;9.23;8.27;;;10.40;99.90;;;;;;5074733;28;20499;-73
2022/11/11 03:51:24;;;;;;;10.30;8.23;;;10.30;99.90;;;;;;5074406;28;20425;-73
2022/11/11 03:54:11;;;;;;;10.07;8.03;;;10.30;99.90;;;;;;5074401;28;20425;-73
2022/11/11 03:57:29;;;;;;;9.40;8.43;;;10.30;99.90;;;;;;5074080;28;20972;-73
2022/11/11 04:00:05;;;;;;;11.37;8.73;;;10.30;99.90;;;;;;5074503;28;20488;-73
2022/11/11 04:12:20;;;;;;;14.47;8.93;;;10.20;99.90;;;;;;5074231;28;20977;-73
2022/11/11 04:18:12;;;;;;;11.80;8.80;;;10.20;99.90;;;;;;5073963;28;20419;-73
2022/11/11 04:24:02;;;;;;;10.83;9.70;;;10.20;99.90;;;;;;5074097;28;20506;-73
2022/11/11 04:26:49;;;;;;;10.47;9.40;;;10.20;99.90;;;;;;5073870;28;20564;-73
2022/11/11 04:29:36;;;;;;;13.53;10.20;;;10.20;99.90;;;;;;5073551;28;20532;-73
2022/11/11 04:32:42;;;;;;;11.20;9.80;;;10.20;99.90;;;;;;5073926;28;20452;-73
2022/11/11 04:35:29;;;;;;;11.90;10.37;;;10.20;99.90;;;;;;5073752;28;20761;-73
2022/11/11 04:41:19;;;;;;;13.80;11.10;;;10.20;99.90;;;;;;5073945;28;20479;-73
2022/11/11 04:47:11;;;;;;;11.97;10.77;;;10.30;99.90;;;;;;5077522;28;20416;-74
2022/11/11 04:49:58;;;;;;;14.33;10.90;;;10.30;99.90;;;;;;5077368;28;20518;-73
2022/11/11 04:52:52;;;;;;;13.03;11.33;;;10.30;99.90;;;;;;5078028;28;20452;-73
2022/11/11 04:58:43;;;;;;;14.07;12.23;;;10.30;99.90;;;;;;5077628;28;20945;-73
2022/11/11 05:04:36;;;;;;;15.13;12.27;;;10.40;99.90;;;;;;5077026;28;20619;-73
2022/11/11 05:10:26;;;;;;;14.47;12.47;;;10.40;99.90;;;;;;5082798;28;20443;-73
2022/11/11 05:22:32;;;;;;;16.17;13.80;;;10.50;99.90;;;;;;5095976;28;20519;-73
2022/11/11 05:25:24;;;;;;;15.00;13.50;;;10.50;99.90;;;;;;5094659;28;20490;-73
2022/11/11 05:28:11;;;;;;;16.20;13.80;;;10.50;99.90;;;;;;5083744;28;20421;-73
2022/11/11 05:30:57;;;;;;;15.10;13.43;;;10.50;99.90;;;;;;5083189;28;20510;-73
2022/11/11 05:33:44;;;;;;;16.70;13.33;;;10.50;99.90;;;;;;5082320;28;20460;-73
2022/11/11 05:36:32;;;;;;;16.50;14.30;;;10.50;99.90;;;;;;5079336;28;20456;-73
2022/11/11 05:39:19;;;;;;;15.50;13.13;;;10.60;99.90;;;;;;5077372;28;20421;-73
2022/11/11 05:42:06;;;;;;;17.73;15.13;;;10.60;99.90;;;;;;5077326;28;20483;-73
2022/11/11 05:44:52;;;;;;;17.43;15.53;;;10.60;99.90;;;;;;5077635;28;20482;-73
2022/11/11 05:47:39;;;;;;;16.77;14.40;;;10.60;99.90;;;;;;5077078;28;20421;-73
2022/11/11 05:50:26;;;;;;;16.77;14.63;;;10.60;99.90;;;;;;5077650;28;20440;-73
2022/11/11 05:53:13;;;;;;;18.10;16.20;;;10.60;99.90;;;;;;5077408;28;20816;-73
2022/11/11 05:56:00;;;;;;;18.20;16.40;;;10.60;99.90;;;;;;5077402;28;20425;-73
2022/11/11 05:58:46;;;;;;;18.23;16.30;;;10.60;99.90;;;;;;5077325;28;20519;-73
2022/11/11 06:01:37;;;;;;;17.07;15.40;;;10.60;99.90;;;;;;5076861;28;20472;-73
2022/11/11 06:04:23;;;;;;;19.47;16.40;;;10.70;99.90;;;;;;5076514;28;20785;-73
2022/11/11 06:07:10;;;;;;;24.73;17.47;;;10.60;99.90;;;;;;5076319;28;20982;-73
2022/11/11 06:10:29;;;;;;;19.20;17.17;;;10.60;99.90;;;;;;5076762;28;20436;-74
2022/11/11 06:13:09;;;;;;;18.73;16.83;;;10.70;99.90;;;;;;5076157;28;20472;-73
2022/11/11 06:15:57;;;;;;;18.80;16.77;;;10.60;99.90;;;;;;5076252;28;20445;-73
2022/11/11 06:18:43;;;;;;;19.60;17.57;;;10.70;99.90;;;;;;5076783;28;20433;-73
2022/11/11 06:21:30;;;;;;;19.53;17.57;;;10.70;99.90;;;;;;5075951;28;20448;-75
2022/11/11 06:24:17;;;;;;;20.27;17.87;;;10.70;99.90;;;;;;5076422;28;20807;-74
2022/11/11 06:27:10;;;;;;;22.70;17.40;;;10.70;99.90;;;;;;5075837;28;20409;-74
2022/11/11 06:29:57;;;;;;;18.70;17.00;;;10.70;99.90;;;;;;5075658;28;20421;-75
2022/11/11 06:33:06;;;;;;;21.00;18.80;;;10.70;99.90;;;;;;5075403;28;20533;-74
2022/11/11 06:35:53;;;;;;;22.90;18.73;;;10.70;99.90;;;;;;5075568;28;20417;-74
2022/11/11 06:38:40;;;;;;;18.90;17.20;;;10.80;99.90;;;;;;5075578;28;20448;-75
2022/11/11 06:41:26;;;;;;;21.20;18.93;;;10.80;99.90;;;;;;5074795;28;20931;-75
2022/11/11 06:44:14;;;;;;;20.47;18.33;;;10.80;99.90;;;;;;5075514;28;20423;-73
2022/11/11 06:47:01;;;;;;;22.37;19.77;;;10.80;99.90;;;;;;5075444;28;20437;-74
2022/11/11 06:49:47;;;;;;;21.10;18.90;;;10.80;99.90;;;;;;5075119;28;20468;-74
2022/11/11 06:52:34;;;;;;;21.33;19.23;;;10.80;99.90;;;;;;5075043;28;20519;-75
2022/11/11 06:55:20;;;;;;;21.60;19.33;;;10.80;99.90;;;;;;5074516;28;20425;-74
2022/11/11 06:58:08;;;;;;;20.37;18.43;;;10.80;99.90;;;;;;5074634;28;20819;-74
2022/11/11 07:00:56;;;;;;;20.90;18.77;;;10.80;99.90;;;;;;5074763;28;20428;-75
2022/11/11 07:03:42;;;;;;;24.90;18.67;;;10.80;99.90;;;;;;5074198;28;20507;-74
2022/11/11 07:06:29;;;;;;;21.10;19.00;;;10.90;99.90;;;;;;5074187;28;20428;-75
2022/11/11 07:09:15;;;;;;;22.53;20.23;;;10.80;99.90;;;;;;5074556;28;20988;-75
2022/11/11 07:12:02;;;;;;;22.47;20.27;;;10.90;99.90;;;;;;5074995;28;20538;-75
2022/11/11 07:14:48;;;;;;;22.20;20.07;;;10.90;99.90;;;;;;5077133;28;20925;-74
2022/11/11 07:17:36;;;;;;;22.17;19.93;;;10.90;99.90;;;;;;5075885;28;20456;-74
2022/11/11 07:20:23;;;;;;;22.53;20.20;;;10.90;99.90;;;;;;5075038;28;20510;-74
2022/11/11 07:23:09;;;;;;;21.03;18.83;;;10.90;99.90;;;;;;5074721;28;20456;-75
2022/11/11 07:25:56;;;;;;;20.97;18.77;;;10.90;99.90;;;;;;5074382;28;20417;-74
2022/11/11 07:28:42;;;;;;;21.33;19.10;;;10.90;99.90;;;;;;5074776;28;20432;-75
2022/11/11 07:31:29;;;;;;;21.33;19.17;;;10.90;99.90;;;;;;5074048;28;20416;-74
2022/11/11 07:34:17;;;;;;;21.60;19.40;;;10.90;99.90;;;;;;5074304;28;20539;-75
2022/11/11 07:37:04;;;;;;;21.97;19.67;;;10.90;99.90;;;;;;5073968;28;20957;-74
2022/11/11 07:39:51;;;;;;;21.30;19.10;;;10.90;99.90;;;;;;5074301;28;20429;-75
2022/11/11 07:42:38;;;;;;;26.30;20.50;;;10.90;99.90;;;;;;5073731;28;20908;-75
2022/11/11 07:45:24;;;;;;;22.03;19.93;;;10.90;99.90;;;;;;5073989;28;20417;-75
2022/11/11 07:48:11;;;;;;;22.33;20.03;;;10.90;99.90;;;;;;5073911;28;20913;-75
2022/11/11 07:50:59;;;;;;;23.30;20.80;;;10.90;99.90;;;;;;5074461;28;20482;-75
2022/11/11 07:53:46;;;;;;;22.97;20.10;;;10.90;99.90;;;;;;5073813;28;20464;-75
2022/11/11 07:56:33;;;;;;;24.07;21.73;;;10.90;99.90;;;;;;5074186;28;20780;-75
2022/11/11 07:59:19;;;;;;;21.87;19.87;;;10.90;99.90;;;;;;5073823;28;20425;-75
2022/11/11 08:02:06;;;;;;;20.87;18.67;;;10.90;99.90;;;;;;5074903;28;20464;-75
2022/11/11 08:04:53;;;;;;;25.87;20.90;;;10.90;99.90;;;;;;5074758;28;20424;-75
2022/11/11 08:07:42;;;;;;;23.23;20.73;;;10.90;99.90;;;;;;5075376;28;20848;-75
2022/11/11 08:10:29;;;;;;;23.00;19.30;;;10.90;99.90;;;;;;5075267;28;20440;-75
2022/11/11 08:16:20;;;;;;;22.97;20.50;;;10.90;99.90;;;;;;5076109;28;20416;-74
2022/11/11 08:19:06;;;;;;;20.90;18.90;;;11.00;99.90;;;;;;5081047;28;20456;-75
2022/11/11 08:21:53;;;;;;;24.27;21.93;;;10.90;99.90;;;;;;5079887;28;20557;-75
2022/11/11 08:24:41;;;;;;;21.73;19.73;;;10.90;99.90;;;;;;5080652;28;20505;-74
2022/11/11 08:27:47;;;;;;;22.63;20.30;;;11.00;99.90;;;;;;5077939;28;20467;-74
2022/11/11 08:30:34;;;;;;;23.00;20.63;;;11.00;99.90;;;;;;5078234;28;20432;-74
2022/11/11 08:33:21;;;;;;;21.57;19.57;;;11.00;99.90;;;;;;5078504;28;20467;-74
2022/11/11 08:36:25;;;;;;;24.00;20.07;;;11.00;99.90;;;;;;5078254;28;20936;-74
2022/11/11 08:39:11;;;;;;;33.60;22.27;;;11.00;99.90;;;;;;5078102;28;20472;-74
2022/11/11 08:41:59;;;;;;;22.63;20.43;;;11.00;99.90;;;;;;5078273;28;20614;-74
2022/11/11 08:44:46;;;;;;;23.10;20.70;;;11.00;99.90;;;;;;5077424;28;21005;-76
2022/11/11 08:47:33;;;;;;;22.10;19.80;;;11.00;99.90;;;;;;5078046;28;20428;-75
2022/11/11 08:50:19;;;;;;;22.60;20.30;;;11.00;99.90;;;;;;5077509;28;20423;-75
2022/11/11 08:53:08;;;;;;;23.10;19.50;;;11.00;99.90;;;;;;5077128;28;20483;-75
2022/11/11 08:55:54;;;;;;;22.73;20.33;;;11.00;99.90;;;;;;5077800;28;20514;-74
2022/11/11 08:58:43;;;;;;;22.60;20.17;;;11.00;99.90;;;;;;5077548;28;20464;-74
2022/11/11 09:01:29;;;;;;;23.73;21.20;;;11.00;99.90;;;;;;5077723;28;20425;-75
2022/11/11 09:04:17;;;;;;;22.50;20.17;;;11.00;99.90;;;;;;5077620;28;20424;-74
2022/11/11 09:07:23;;;;;;;23.10;20.37;;;11.10;99.90;;;;;;5076824;28;20425;-75
2022/11/11 09:10:10;;;;;;;21.20;19.10;;;11.10;99.90;;;;;;5077304;28;20446;-75
2022/11/11 09:12:57;;;;;;;20.90;18.80;;;11.10;99.90;;;;;;5077253;28;20460;-75
2022/11/11 09:15:45;;;;;;;22.47;20.10;;;11.10;99.90;;;;;;5077393;28;20495;-74
2022/11/11 09:18:32;;;;;;;20.30;18.30;;;11.00;99.90;;;;;;5076332;28;20498;-75
2022/11/11 09:21:19;;;;;;;21.70;19.43;;;11.10;99.90;;;;;;5076580;28;20976;-74
2022/11/11 09:24:06;;;;;;;22.00;19.70;;;11.10;99.90;;;;;;5076677;28;20421;-74
2022/11/11 09:26:53;;;;;;;22.57;20.13;;;11.10;99.90;;;;;;5076588;28;20428;-75
2022/11/11 09:29:39;;;;;;;22.40;18.97;;;11.10;99.90;;;;;;5076113;28;20420;-75
2022/11/11 09:32:27;;;;;;;22.20;19.97;;;11.10;99.90;;;;;;5076903;28;20475;-73
2022/11/11 09:35:14;;;;;;;21.67;19.53;;;11.10;99.90;;;;;;5076956;28;20428;-75
2022/11/11 09:38:02;;;;;;;24.23;21.70;;;11.10;99.90;;;;;;5076977;28;20811;-74
2022/11/11 09:41:07;;;;;;;20.97;19.00;;;11.10;99.90;;;;;;5076914;28;20539;-74
2022/11/11 09:43:56;;;;;;;21.93;19.93;;;11.10;99.90;;;;;;5076667;28;20416;-74
2022/11/11 09:46:52;;;;;;;22.63;20.37;;;11.10;99.90;;;;;;5076712;28;20421;-73
2022/11/11 09:49:58;;;;;;;25.00;20.57;;;11.20;99.90;;;;;;5076539;28;20471;-74
2022/11/11 09:52:50;;;;;;;20.80;18.80;;;11.20;99.90;;;;;;5076276;28;20472;-74
2022/11/11 09:55:39;;;;;;;21.07;19.07;;;11.20;99.90;;;;;;5077061;28;20417;-75
2022/11/11 09:58:32;;;;;;;19.53;17.63;;;11.20;99.90;;;;;;5076673;28;21093;-74
2022/11/11 10:01:23;;;;;;;21.50;19.40;;;11.20;99.90;;;;;;5077315;28;20784;-75
2022/11/11 10:04:23;;;;;;;20.27;18.33;;;11.20;99.90;;;;;;5079393;28;20420;-74
2022/11/11 10:07:20;;;;;;;19.47;17.70;;;11.30;99.90;;;;;;5084684;28;20803;-75
2022/11/11 10:10:15;;;;;;;19.60;17.80;;;11.20;99.90;;;;;;5088725;28;20433;-74
2022/11/11 10:13:03;;;;;;;19.37;17.57;;;11.20;99.90;;;;;;5085938;28;20518;-75
2022/11/11 10:15:58;;;;;;;20.63;18.63;;;11.30;99.90;;;;;;5085441;28;20436;-74
2022/11/11 10:19:00;;;;;;;20.50;18.50;;;11.30;99.90;;;;;;5086642;28;20509;-75
2022/11/11 10:21:51;;;;;;;22.40;20.30;;;11.30;99.90;;;;;;5088004;28;20506;-73
2022/11/11 10:25:08;;;;;;;21.50;19.60;;;11.30;99.90;;;;;;5087581;28;20432;-72
2022/11/11 10:27:58;;;;;;;20.00;18.30;;;11.40;99.90;;;;;;5084232;28;20479;-73
2022/11/11 10:30:47;;;;;;;19.50;17.67;;;11.40;99.90;;;;;;5083611;28;20422;-73
2022/11/11 10:33:42;;;;;;;20.13;18.20;;;11.40;99.90;;;;;;5081708;28;20460;-74
2022/11/11 10:36:31;;;;;;;21.43;19.33;;;11.40;99.90;;;;;;5080162;28;20417;-73
2022/11/11 10:39:27;;;;;;;20.57;18.77;;;11.40;99.90;;;;;;5077121;28;20468;-74
2022/11/11 10:42:17;;;;;;;20.53;18.63;;;11.50;99.90;;;;;;5077400;28;20540;-74
2022/11/11 10:45:12;;;;;;;21.00;19.00;;;11.50;99.90;;;;;;5076862;28;20424;-74
2022/11/11 10:48:04;;;;;;;19.53;17.63;;;11.50;99.90;;;;;;5075877;28;20417;-74
2022/11/11 10:50:54;;;;;;;19.17;17.47;;;11.60;99.90;;;;;;5077129;28;20424;-74
2022/11/11 10:53:49;;;;;;;17.87;16.27;;;11.60;99.90;;;;;;5077520;28;20468;-72
2022/11/11 10:56:42;;;;;;;18.57;16.80;;;11.70;99.90;;;;;;5076620;28;20417;-71
2022/11/11 10:59:36;;;;;;;16.43;15.00;;;11.80;99.90;;;;;;5076073;28;20541;-72
2022/11/11 11:02:27;;;;;;;17.37;15.67;;;11.80;99.90;;;;;;5075788;28;20460;-74
2022/11/11 11:05:17;;;;;;;17.63;15.70;;;11.90;99.90;;;;;;5075433;28;20437;-74
2022/11/11 11:08:09;;;;;;;15.23;13.73;;;12.00;99.90;;;;;;5075222;28;20440;-74
2022/11/11 11:10:58;;;;;;;16.77;14.87;;;12.00;99.90;;;;;;5075726;28;20433;-76
2022/11/11 11:13:49;;;;;;;14.57;13.20;;;12.10;99.90;;;;;;5078762;28;21008;-76
2022/11/11 11:16:43;;;;;;;14.17;12.70;;;12.20;99.90;;;;;;5076711;28;20436;-76
2022/11/11 11:19:30;;;;;;;14.13;12.77;;;12.30;99.90;;;;;;5077947;28;20552;-76
2022/11/11 11:22:17;;;;;;;14.17;12.77;;;12.30;99.90;;;;;;5076263;28;20534;-76
2022/11/11 11:25:11;;;;;;;12.83;11.33;;;12.40;99.90;;;;;;5077096;28;20424;-76
2022/11/11 11:28:07;;;;;;;14.53;13.03;;;12.40;99.90;;;;;;5078076;28;20441;-76
2022/11/11 11:31:02;;;;;;;15.10;11.27;;;12.50;99.90;;;;;;5078519;28;20436;-76
2022/11/11 11:33:53;;;;;;;13.10;11.10;;;12.50;99.90;;;;;;5079541;28;20460;-76
2022/11/11 11:36:40;;;;;;;12.20;11.03;;;12.60;99.90;;;;;;5077237;28;20805;-76
2022/11/11 11:39:35;;;;;;;16.40;10.53;;;12.60;99.90;;;;;;5074748;28;20816;-74
2022/11/11 11:42:29;;;;;;;13.13;10.93;;;12.70;99.90;;;;;;5074124;28;20947;-75
2022/11/11 11:45:20;;;;;;;11.57;10.00;;;12.80;99.90;;;;;;5073911;28;20417;-75
2022/11/11 11:48:19;;;;;;;10.00;8.77;;;12.80;99.90;;;;;;5074169;28;20425;-75
2022/11/11 11:51:31;;;;;;;11.20;10.07;;;12.90;99.90;;;;;;5073678;28;20791;-75
2022/11/11 11:54:35;;;;;;;9.80;8.90;;;13.00;99.90;;;;;;5073893;28;21028;-75
2022/11/11 11:57:37;;;;;;;10.57;9.10;;;13.00;99.90;;;;;;5073715;28;20420;-75
2022/11/11 12:00:26;;;;;;;10.10;8.80;;;13.10;99.90;;;;;;5073834;28;20563;-75
2022/11/11 12:03:42;;;;;;;8.83;8.00;;;13.10;99.90;;;;;;5073769;28;20499;-74
2022/11/11 12:06:41;;;;;;;11.90;8.37;;;13.10;99.90;;;;;;5056651;28;20494;-75
2022/11/11 12:09:36;;;;;;;10.70;8.33;;;13.20;99.90;;;;;;5073681;28;20417;-75
2022/11/11 12:12:32;;;;;;;11.00;8.10;;;13.20;99.90;;;;;;5073521;28;20536;-75
2022/11/11 12:15:33;;;;;;;12.77;8.07;;;13.30;99.90;;;;;;5073703;28;20424;-75
2022/11/11 12:18:40;;;;;;;10.43;8.10;;;13.30;99.90;;;;;;5073548;28;20424;-75
2022/11/11 12:21:36;;;;;;;7.83;6.97;;;13.40;99.90;;;;;;5073693;28;20534;-75
2022/11/11 12:24:43;;;;;;;9.00;7.50;;;13.50;99.90;;;;;;5073839;28;20417;-75
2022/11/11 12:27:35;;;;;;;11.40;7.47;;;13.50;99.90;;;;;;5073972;28;20413;-75
2022/11/11 12:30:27;;;;;;;12.00;7.70;;;13.60;99.90;;;;;;5073530;28;20774;-75
2022/11/11 12:33:38;;;;;;;8.13;6.00;;;13.70;99.90;;;;;;5073642;28;20461;-73
2022/11/11 12:36:35;;;;;;;8.43;6.53;;;13.70;99.90;;;;;;5073842;28;20413;-74
2022/11/11 12:39:47;;;;;;;7.47;6.07;;;13.80;99.90;;;;;;5073746;28;20453;-74
2022/11/11 12:42:49;;;;;;;8.07;6.00;;;13.90;99.90;;;;;;5073175;28;20460;-74
2022/11/11 12:45:45;;;;;;;11.50;6.73;;;13.90;99.90;;;;;;5073594;28;20432;-75
2022/11/11 12:48:51;;;;;;;8.13;6.57;;;13.90;99.90;;;;;;5073529;28;20491;-76
2022/11/11 12:51:51;;;;;;;7.30;5.87;;;14.00;99.90;;;;;;5072881;28;20425;-75
2022/11/11 12:54:48;;;;;;;8.90;6.80;;;14.00;99.90;;;;;;5073175;28;20429;-75
2022/11/11 12:57:45;;;;;;;6.87;5.90;;;14.00;99.90;;;;;;5073110;28;20929;-76
2022/11/11 13:00:36;;;;;;;8.23;6.10;;;14.00;99.90;;;;;;5072905;28;20453;-76
2022/11/11 13:03:38;;;;;;;7.00;6.03;;;14.10;99.90;;;;;;5074316;28;20471;-75
2022/11/11 13:06:42;;;;;;;7.00;5.23;;;14.10;99.90;;;;;;5076915;28;20792;-76
2022/11/11 13:09:46;;;;;;;8.63;5.83;;;14.10;99.90;;;;;;5076776;28;20428;-75
2022/11/11 13:12:42;;;;;;;6.77;5.50;;;14.10;99.90;;;;;;5076954;28;20590;-75
2022/11/11 13:15:29;;;;;;;7.67;5.57;;;14.10;99.90;;;;;;5077881;28;20420;-75
2022/11/11 13:18:22;;;;;;;8.33;6.20;;;14.10;99.90;;;;;;5077190;28;20825;-77
2022/11/11 13:21:14;;;;;;;8.40;5.10;;;14.10;99.90;;;;;;5076469;28;21405;-76
2022/11/11 13:24:01;;;;;;;7.93;6.00;;;14.10;99.90;;;;;;5077109;28;20425;-75
2022/11/11 13:26:53;;;;;;;7.77;5.30;;;14.10;99.90;;;;;;5077135;28;20425;-75
2022/11/11 13:30:00;;;;;;;7.57;6.03;;;14.10;99.90;;;;;;5077041;28;20484;-75
2022/11/11 13:32:50;;;;;;;6.33;5.43;;;14.10;99.90;;;;;;5076558;28;20460;-76
2022/11/11 13:35:42;;;;;;;7.80;6.30;;;14.10;99.90;;;;;;5077314;28;20416;-75
2022/11/11 13:38:32;;;;;;;7.70;6.00;;;14.10;99.90;;;;;;5076885;28;20475;-76
2022/11/11 13:41:25;;;;;;;8.17;6.03;;;14.10;99.90;;;;;;5076124;28;20452;-76
2022/11/11 13:44:22;;;;;;;6.47;5.80;;;14.10;99.90;;;;;;5076665;28;20821;-76
2022/11/11 13:47:18;;;;;;;6.80;6.00;;;14.10;99.90;;;;;;5076706;28;20782;-77
2022/11/11 13:50:09;;;;;;;8.00;6.30;;;14.10;99.90;;;;;;5076519;28;20818;-77
2022/11/11 13:53:00;;;;;;;9.20;6.13;;;14.10;99.90;;;;;;5075845;28;20535;-77
2022/11/11 13:55:47;;;;;;;8.77;5.33;;;14.10;99.90;;;;;;5076247;28;20429;-77
2022/11/11 13:58:37;;;;;;;7.70;5.20;;;14.10;99.90;;;;;;5076025;28;20428;-77
2022/11/11 14:01:32;;;;;;;10.80;5.00;;;14.10;99.90;;;;;;5075683;28;20448;-76
2022/11/11 14:04:27;;;;;;;8.60;5.00;;;14.10;99.90;;;;;;5075949;28;20471;-77
2022/11/11 14:07:55;;;;;;;6.73;5.10;;;14.10;99.90;;;;;;5075864;28;20520;-77
2022/11/11 14:10:56;;;;;;;7.90;5.73;;;14.10;99.90;;;;;;5075994;28;20432;-76
2022/11/11 14:13:43;;;;;;;7.40;5.37;;;14.20;99.90;;;;;;5075634;28;20467;-75
2022/11/11 14:17:04;;;;;;;6.33;5.30;;;14.20;99.90;;;;;;5075415;28;20459;-77
2022/11/11 14:19:51;;;;;;;6.53;5.03;;;14.20;99.90;;;;;;5050821;28;20514;-75
2022/11/11 14:22:38;;;;;;;7.97;6.40;;;14.20;99.90;;;;;;5075264;28;20562;-77
2022/11/11 14:25:27;;;;;;;11.30;7.13;;;14.20;99.90;;;;;;5075669;28;20483;-77
2022/11/11 14:28:24;;;;;;;8.23;5.90;;;14.20;99.90;;;;;;5079895;28;20429;-75
2022/11/11 14:31:50;;;;;;;9.10;6.00;;;14.20;99.90;;;;;;5076941;28;20779;-77
2022/11/11 14:34:51;;;;;;;8.80;5.47;;;14.10;99.90;;;;;;5014169;28;20945;-77
2022/11/11 14:37:57;;;;;;;8.50;6.90;;;14.10;99.90;;;;;;5075233;28;20416;-77
2022/11/11 14:40:44;;;;;;;8.70;5.37;;;14.10;99.90;;;;;;5075254;28;20452;-77
2022/11/11 14:43:37;;;;;;;7.13;5.63;;;14.10;99.90;;;;;;5076146;28;20471;-77
2022/11/11 14:46:24;;;;;;;6.60;4.73;;;14.10;99.90;;;;;;5075207;28;20424;-77
2022/11/11 14:49:10;;;;;;;7.90;5.23;;;14.10;99.90;;;;;;5074919;28;20502;-77
2022/11/11 14:51:58;;;;;;;7.07;5.30;;;14.00;99.90;;;;;;5074642;28;21071;-77
2022/11/11 14:55:11;;;;;;;6.20;5.03;;;14.00;99.90;;;;;;5076019;28;20441;-77
2022/11/11 14:58:01;;;;;;;11.17;6.80;;;14.00;99.90;;;;;;5078384;28;20428;-76
2022/11/11 15:00:53;;;;;;;5.80;5.17;;;14.00;99.90;;;;;;5078733;28;20536;-76
2022/11/11 15:03:48;;;;;;;9.30;5.30;;;13.90;99.90;;;;;;5079557;28;20852;-77
2022/11/11 15:06:41;;;;;;;9.27;4.80;;;13.90;99.90;;;;;;5076798;28;20448;-76
2022/11/11 15:09:45;;;;;;;9.50;6.33;;;13.90;99.90;;;;;;5077084;28;21004;-76
2022/11/11 15:12:45;;;;;;;9.97;6.30;;;13.90;99.90;;;;;;5083324;28;20506;-77
2022/11/11 15:15:39;;;;;;;8.17;6.10;;;13.80;99.90;;;;;;5081057;28;20420;-77
2022/11/11 15:18:47;;;;;;;7.60;5.90;;;13.80;99.90;;;;;;5082152;28;20417;-77
2022/11/11 15:21:35;;;;;;;9.43;5.57;;;13.80;99.90;;;;;;5074954;28;20472;-77
2022/11/11 15:24:34;;;;;;;7.40;5.50;;;13.70;99.90;;;;;;5074922;28;20786;-77
2022/11/11 15:27:32;;;;;;;9.10;5.90;;;13.70;99.90;;;;;;5074443;28;20424;-77
2022/11/11 15:30:21;;;;;;;8.97;5.30;;;13.60;99.90;;;;;;5074542;28;20498;-77
2022/11/11 15:33:15;;;;;;;7.60;5.50;;;13.60;99.90;;;;;;5074140;28;20468;-77
2022/11/11 15:36:10;;;;;;;9.00;6.87;;;13.50;99.90;;;;;;5074290;28;20433;-77
2022/11/11 15:38:58;;;;;;;10.87;9.50;;;13.50;99.90;;;;;;5074222;28;20417;-77
2022/11/11 15:41:48;;;;;;;11.47;7.63;;;13.40;99.90;;;;;;5073624;28;20879;-77
2022/11/11 15:44:35;;;;;;;13.70;8.13;;;13.40;99.90;;;;;;5074396;28;20433;-77
2022/11/11 15:47:22;;;;;;;10.50;7.73;;;13.30;99.90;;;;;;5074092;28;20443;-77
2022/11/11 15:50:17;;;;;;;11.00;6.90;;;13.30;99.90;;;;;;5074406;28;20443;-77
2022/11/11 15:53:11;;;;;;;9.27;7.33;;;13.20;99.90;;;;;;5073989;28;20544;-77
2022/11/11 15:55:59;;;;;;;28.70;22.17;;;13.10;99.90;;;;;;5074005;28;20524;-77